createdAt,value
2019-05-10T00:05:24.264Z,2.27
2019-05-10T00:11:08.163Z,2.20
2019-05-10T00:13:39.253Z,1.90
2019-05-10T00:16:07.732Z,2.10
2019-05-10T00:18:36.512Z,2.43
2019-05-10T00:27:51.014Z,2.70
2019-05-10T00:30:19.682Z,2.87
2019-05-10T00:32:49.825Z,2.83
2019-05-10T00:36:06.758Z,2.23
2019-05-10T00:38:35.284Z,2.63
2019-05-10T00:41:46.391Z,2.80
2019-05-10T00:44:15.018Z,2.57
2019-05-10T00:46:47.272Z,2.97
2019-05-10T00:49:23.649Z,2.53
2019-05-10T00:51:52.205Z,2.50
2019-05-10T00:55:18.302Z,2.53
2019-05-10T00:57:39.508Z,3.23
2019-05-10T01:00:08.107Z,2.57
2019-05-10T01:03:19.440Z,2.70
2019-05-10T01:05:47.889Z,2.30
2019-05-10T01:08:16.641Z,2.23
2019-05-10T01:10:53.814Z,2.33
2019-05-10T01:13:25.567Z,2.73
2019-05-10T01:15:55.753Z,2.80
2019-05-10T01:18:24.409Z,2.57
2019-05-10T01:20:53.281Z,2.37
2019-05-10T01:24:10.654Z,2.10
2019-05-10T01:26:41.086Z,2.30
2019-05-10T01:29:12.351Z,2.27
2019-05-10T01:31:52.273Z,1.83
2019-05-10T01:34:20.829Z,2.17
2019-05-10T01:36:50.897Z,2.40
2019-05-10T01:39:19.610Z,2.20
2019-05-10T01:41:50.177Z,2.30
2019-05-10T01:44:33.618Z,2.13
2019-05-10T01:47:03.912Z,2.50
2019-05-10T01:49:32.693Z,2.03
2019-05-10T01:52:12.281Z,2.20
2019-05-10T01:54:47.891Z,2.10
2019-05-10T02:00:13.912Z,2.10
2019-05-10T02:02:42.103Z,2.17
2019-05-10T02:05:12.127Z,2.10
2019-05-10T02:07:48.646Z,2.47
2019-05-10T02:10:20.945Z,2.60
2019-05-10T02:12:56.801Z,2.20
2019-05-10T02:15:27.647Z,2.30
2019-05-10T02:17:57.791Z,2.40
2019-05-10T02:20:33.055Z,2.83
2019-05-10T02:23:08.015Z,2.07
2019-05-10T02:25:38.000Z,2.20
2019-05-10T02:28:08.382Z,2.10
2019-05-10T02:30:41.066Z,2.37
2019-05-10T02:33:10.239Z,2.10
2019-05-10T02:35:48.376Z,2.23
2019-05-10T02:38:24.269Z,2.60
2019-05-10T02:40:58.120Z,2.37
2019-05-10T02:43:49.864Z,2.30
2019-05-10T02:46:20.219Z,2.13
2019-05-10T02:48:52.110Z,2.30
2019-05-10T02:51:22.532Z,2.47
2019-05-10T02:53:57.369Z,2.77
2019-05-10T02:56:31.942Z,2.37
2019-05-10T02:59:04.469Z,2.50
2019-05-10T03:01:36.912Z,2.53
2019-05-10T03:04:10.453Z,2.43
2019-05-10T03:06:44.450Z,2.50
2019-05-10T03:09:18.840Z,2.63
2019-05-10T03:11:53.907Z,2.40
2019-05-10T03:14:29.766Z,2.53
2019-05-10T03:17:00.487Z,2.60
2019-05-10T03:19:38.244Z,2.40
2019-05-10T03:22:12.955Z,2.80
2019-05-10T03:24:43.051Z,3.30
2019-05-10T03:27:13.023Z,2.90
2019-05-10T03:29:46.302Z,2.73
2019-05-10T03:32:26.922Z,2.73
2019-05-10T03:34:57.558Z,2.70
2019-05-10T03:37:57.847Z,2.60
2019-05-10T03:40:28.511Z,2.77
2019-05-10T03:42:59.581Z,2.40
2019-05-10T03:45:29.528Z,2.90
2019-05-10T03:48:05.464Z,2.43
2019-05-10T03:50:37.634Z,2.63
2019-05-10T03:53:10.224Z,2.70
2019-05-10T03:55:42.502Z,3.10
2019-05-10T03:58:12.201Z,3.40
2019-05-10T04:00:46.304Z,2.70
2019-05-10T04:03:15.691Z,2.70
2019-05-10T04:05:45.796Z,2.87
2019-05-10T04:08:14.830Z,2.50
2019-05-10T04:10:50.893Z,2.80
2019-05-10T04:13:19.849Z,2.67
2019-05-10T04:15:53.788Z,2.27
2019-05-10T04:18:22.644Z,2.57
2019-05-10T04:20:52.673Z,2.40
2019-05-10T04:23:25.314Z,2.60
2019-05-10T04:25:58.368Z,2.77
2019-05-10T04:28:28.926Z,2.50
2019-05-10T04:30:59.331Z,3.03
2019-05-10T04:33:28.461Z,3.03
2019-05-10T04:35:57.810Z,3.60
2019-05-10T04:38:35.453Z,2.60
2019-05-10T04:41:06.682Z,2.37
2019-05-10T04:43:39.151Z,2.70
2019-05-10T04:46:12.184Z,2.73
2019-05-10T04:48:46.874Z,2.37
2019-05-10T04:51:17.000Z,2.43
2019-05-10T04:53:48.651Z,2.30
2019-05-10T04:56:18.716Z,2.50
2019-05-10T04:58:48.382Z,2.50
2019-05-10T05:01:21.386Z,2.53
2019-05-10T05:03:49.901Z,2.83
2019-05-10T05:06:18.988Z,2.63
2019-05-10T05:08:50.049Z,2.30
2019-05-10T05:11:21.704Z,2.37
2019-05-10T05:13:54.630Z,2.43
2019-05-10T05:16:26.399Z,2.57
2019-05-10T05:18:55.161Z,2.10
2019-05-10T05:21:29.562Z,2.63
2019-05-10T05:23:58.977Z,2.40
2019-05-10T05:26:27.888Z,2.27
2019-05-10T05:28:57.577Z,2.00
2019-05-10T05:31:27.475Z,2.50
2019-05-10T05:33:59.293Z,2.87
2019-05-10T05:36:29.240Z,2.37
2019-05-10T05:39:02.536Z,2.47
2019-05-10T05:41:32.084Z,2.20
2019-05-10T05:44:02.033Z,2.20
2019-05-10T05:46:32.093Z,2.10
2019-05-10T05:49:03.713Z,2.37
2019-05-10T05:51:36.095Z,2.30
2019-05-10T05:54:06.311Z,2.57
2019-05-10T05:56:36.309Z,2.20
2019-05-10T05:59:09.856Z,2.27
2019-05-10T06:05:00.328Z,2.30
2019-05-10T06:07:31.161Z,1.90
2019-05-10T06:10:00.911Z,1.90
2019-05-10T06:12:29.462Z,2.10
2019-05-10T06:15:11.591Z,1.97
2019-05-10T06:17:40.881Z,2.10
2019-05-10T06:20:18.340Z,2.10
2019-05-10T06:23:04.157Z,2.40
2019-05-10T06:25:18.715Z,2.22
2019-05-10T06:27:48.062Z,1.70
2019-05-10T06:30:17.486Z,2.77
2019-05-10T06:32:53.221Z,2.23
2019-05-10T06:35:27.450Z,1.70
2019-05-10T06:38:04.029Z,1.90
2019-05-10T06:40:44.501Z,2.40
2019-05-10T06:43:13.294Z,1.93
2019-05-10T06:45:46.674Z,2.07
2019-05-10T06:48:20.043Z,3.27
2019-05-10T06:50:46.356Z,2.40
2019-05-10T06:53:23.146Z,1.80
2019-05-10T06:55:55.797Z,2.50
2019-05-10T06:58:36.497Z,2.47
2019-05-10T07:01:07.443Z,2.75
2019-05-10T07:03:36.760Z,2.80
2019-05-10T07:06:06.127Z,2.80
2019-05-10T07:08:44.210Z,2.60
2019-05-10T07:11:13.483Z,2.40
2019-05-10T07:13:46.616Z,2.13
2019-05-10T07:16:24.062Z,2.20
2019-05-10T07:18:54.715Z,2.40
2019-05-10T07:21:21.478Z,2.70
2019-05-10T07:23:52.321Z,2.20
2019-05-10T07:26:23.920Z,2.33
2019-05-10T07:29:10.404Z,2.70
2019-05-10T07:31:57.855Z,2.30
2019-05-10T07:34:26.360Z,2.37
2019-05-10T07:37:01.792Z,2.17
2019-05-10T07:39:32.320Z,2.33
2019-05-10T07:42:07.215Z,2.20
2019-05-10T07:44:46.710Z,3.33
2019-05-10T07:47:14.664Z,2.27
2019-05-10T07:49:50.656Z,2.70
2019-05-10T07:52:22.803Z,2.30
2019-05-10T07:54:52.289Z,1.83
2019-05-10T07:57:27.085Z,2.00
2019-05-10T08:00:02.796Z,2.33
2019-05-10T08:02:29.176Z,2.07
2019-05-10T08:05:04.829Z,3.37
2019-05-10T08:07:53.757Z,2.10
2019-05-10T08:10:28.657Z,2.47
2019-05-10T08:13:03.577Z,2.80
2019-05-10T08:15:35.165Z,1.53
2019-05-10T08:18:05.097Z,2.17
2019-05-10T08:20:46.543Z,2.27
2019-05-10T08:23:07.563Z,2.40
2019-05-10T08:25:43.933Z,2.47
2019-05-10T08:28:12.531Z,2.37
2019-05-10T08:30:51.188Z,2.37
2019-05-10T08:33:36.334Z,1.93
2019-05-10T08:36:12.057Z,2.50
2019-05-10T08:38:32.562Z,2.23
2019-05-10T08:41:08.148Z,1.93
2019-05-10T08:43:40.113Z,1.90
2019-05-10T08:46:06.746Z,1.77
2019-05-10T08:48:51.312Z,2.40
2019-05-10T08:51:22.791Z,2.00
2019-05-10T08:53:58.229Z,2.30
2019-05-10T08:56:24.723Z,1.43
2019-05-10T08:59:03.907Z,1.63
2019-05-10T09:01:44.443Z,1.80
2019-05-10T09:04:06.939Z,1.87
2019-05-10T09:06:42.224Z,1.93
2019-05-10T09:09:15.193Z,2.10
2019-05-10T09:11:45.459Z,1.90
2019-05-10T09:14:19.772Z,1.93
2019-05-10T09:17:00.651Z,1.70
2019-05-10T09:19:37.486Z,1.90
2019-05-10T09:22:01.926Z,2.27
2019-05-10T09:24:34.522Z,2.20
2019-05-10T09:27:04.136Z,1.70
2019-05-10T09:29:37.497Z,1.90
2019-05-10T09:32:12.536Z,2.87
2019-05-10T09:34:43.529Z,1.70
2019-05-10T09:37:17.692Z,1.50
2019-05-10T09:40:05.426Z,1.60
2019-05-10T09:42:39.385Z,1.73
2019-05-10T09:45:09.829Z,1.60
2019-05-10T09:47:43.498Z,1.53
2019-05-10T09:50:22.765Z,1.40
2019-05-10T09:52:51.557Z,1.40
2019-05-10T09:55:24.642Z,1.30
2019-05-10T09:58:01.506Z,1.70
2019-05-10T10:00:49.137Z,1.70
2019-05-10T10:03:29.673Z,1.70
2019-05-10T10:06:05.688Z,1.67
2019-05-10T10:08:28.275Z,1.62
2019-05-10T10:11:14.992Z,1.80
2019-05-10T10:13:59.656Z,1.60
2019-05-10T10:16:39.045Z,1.40
2019-05-10T10:19:19.860Z,1.20
2019-05-10T10:21:49.482Z,1.30
2019-05-10T10:27:34.526Z,1.60
2019-05-10T10:30:12.609Z,1.30
2019-05-10T10:32:55.052Z,1.30
2019-05-10T10:36:04.607Z,1.40
2019-05-10T10:44:18.016Z,1.80
2019-05-10T10:46:53.409Z,1.63
2019-05-10T10:49:31.911Z,1.55
2019-05-10T10:52:29.648Z,1.70
2019-05-10T10:54:40.662Z,1.60
2019-05-10T10:57:23.462Z,1.37
2019-05-10T11:00:04.114Z,1.70
2019-05-10T11:02:46.520Z,1.82
2019-05-10T11:05:16.528Z,1.20
2019-05-10T11:07:47.977Z,1.53
2019-05-10T11:10:24.874Z,1.23
2019-05-10T11:13:02.977Z,1.40
2019-05-10T11:15:44.336Z,1.50
2019-05-10T11:18:16.597Z,1.20
2019-05-10T11:21:02.027Z,1.10
2019-05-10T11:23:34.244Z,1.33
2019-05-10T11:26:01.196Z,1.67
2019-05-10T11:28:38.194Z,1.40
2019-05-10T11:31:03.190Z,1.30
2019-05-10T11:33:33.739Z,2.60
2019-05-10T11:36:06.476Z,1.23
2019-05-10T11:38:32.340Z,1.87
2019-05-10T11:41:06.920Z,1.33
2019-05-10T11:43:35.780Z,1.50
2019-05-10T11:46:04.647Z,1.10
2019-05-10T11:48:37.411Z,0.93
2019-05-10T11:51:11.249Z,1.10
2019-05-10T11:53:36.259Z,1.00
2019-05-10T11:59:04.404Z,1.60
2019-05-10T11:59:04.538Z,1.30
2019-05-10T12:01:17.644Z,2.40
2019-05-10T12:03:43.304Z,1.00
2019-05-10T12:06:14.695Z,1.40
2019-05-10T12:08:43.671Z,1.10
2019-05-10T12:11:27.568Z,1.10
2019-05-10T12:13:56.770Z,1.17
2019-05-10T12:16:21.584Z,1.20
2019-05-10T12:19:05.522Z,1.10
2019-05-10T12:21:33.197Z,1.30
2019-05-10T12:24:10.243Z,1.67
2019-05-10T12:29:12.051Z,1.13
2019-05-10T12:31:37.725Z,1.20
2019-05-10T12:34:14.231Z,1.23
2019-05-10T12:36:36.652Z,1.33
2019-05-10T12:39:07.580Z,4.00
2019-05-10T12:41:57.098Z,5.00
2019-05-10T12:44:32.981Z,5.57
2019-05-10T12:47:02.411Z,4.97
2019-05-10T12:49:36.833Z,5.23
2019-05-10T12:52:14.323Z,5.30
2019-05-10T12:54:42.762Z,4.77
2019-05-10T12:57:11.595Z,4.17
2019-05-10T12:59:41.820Z,4.23
2019-05-10T13:02:13.405Z,3.67
2019-05-10T13:04:47.181Z,4.00
2019-05-10T13:07:15.512Z,4.80
2019-05-10T13:09:49.628Z,4.93
2019-05-10T13:12:16.661Z,5.33
2019-05-10T13:14:46.756Z,5.03
2019-05-10T13:17:17.421Z,6.50
2019-05-10T13:19:46.012Z,4.83
2019-05-10T13:22:15.057Z,5.13
2019-05-10T13:24:43.570Z,4.73
2019-05-10T13:27:12.406Z,4.93
2019-05-10T13:29:47.094Z,4.60
2019-05-10T13:32:14.858Z,4.20
2019-05-10T13:34:41.739Z,3.87
2019-05-10T13:37:13.718Z,3.90
2019-05-10T13:39:41.858Z,3.33
2019-05-10T13:42:11.215Z,3.17
2019-05-10T13:44:42.958Z,3.77
2019-05-10T13:47:11.682Z,3.37
2019-05-10T13:49:42.215Z,4.17
2019-05-10T13:52:10.783Z,5.70
2019-05-10T13:54:39.370Z,4.67
2019-05-10T13:57:08.056Z,5.57
2019-05-10T13:59:38.135Z,5.23
2019-05-10T14:02:22.869Z,4.90
2019-05-10T14:04:48.047Z,5.50
2019-05-10T14:07:16.628Z,5.20
2019-05-10T14:09:45.556Z,5.53
2019-05-10T14:12:23.442Z,5.80
2019-05-10T14:14:47.785Z,5.40
2019-05-10T14:17:16.354Z,5.80
2019-05-10T14:19:44.906Z,5.73
2019-05-10T14:22:16.378Z,4.97
2019-05-10T14:24:46.873Z,5.20
2019-05-10T14:27:15.706Z,4.73
2019-05-10T14:29:48.803Z,4.47
2019-05-10T14:32:17.686Z,5.43
2019-05-10T14:34:46.758Z,4.90
2019-05-10T14:37:19.710Z,4.37
2019-05-10T14:39:45.354Z,4.57
2019-05-10T14:42:23.720Z,4.83
2019-05-10T14:44:46.244Z,3.97
2019-05-10T14:47:14.890Z,4.40
2019-05-10T14:49:46.899Z,4.27
2019-05-10T14:52:16.818Z,4.20
2019-05-10T14:54:49.979Z,3.67
2019-05-10T14:57:18.748Z,3.23
2019-05-10T14:59:47.646Z,3.33
2019-05-10T15:02:21.944Z,2.27
2019-05-10T15:04:47.483Z,2.57
2019-05-10T15:07:16.617Z,2.40
2019-05-10T15:09:48.041Z,2.67
2019-05-10T15:12:19.696Z,2.50
2019-05-10T15:14:46.431Z,2.30
2019-05-10T15:17:20.328Z,2.20
2019-05-10T15:19:56.280Z,2.40
2019-05-10T15:22:22.981Z,2.33
2019-05-10T15:24:51.088Z,2.27
2019-05-10T15:27:21.714Z,3.47
2019-05-10T15:29:52.153Z,2.27
2019-05-10T15:32:21.478Z,2.23
2019-05-10T15:35:05.718Z,1.93
2019-05-10T15:37:21.816Z,2.23
2019-05-10T15:39:53.144Z,1.80
2019-05-10T15:42:25.485Z,2.60
2019-05-10T15:44:55.160Z,2.97
2019-05-10T15:47:24.780Z,2.37
2019-05-10T15:49:59.351Z,2.43
2019-05-10T15:52:30.498Z,3.03
2019-05-10T15:54:59.964Z,2.70
2019-05-10T15:57:34.235Z,2.80
2019-05-10T16:00:02.984Z,3.30
2019-05-10T16:02:32.018Z,3.37
2019-05-10T16:05:00.671Z,3.50
2019-05-10T16:07:29.517Z,2.70
2019-05-10T16:09:58.204Z,2.70
2019-05-10T16:12:30.504Z,2.37
2019-05-10T16:15:04.397Z,2.20
2019-05-10T16:17:37.223Z,2.17
2019-05-10T16:20:14.925Z,2.20
2019-05-10T16:22:45.829Z,2.30
2019-05-10T16:25:15.782Z,2.70
2019-05-10T16:27:46.384Z,3.27
2019-05-10T16:30:17.695Z,2.70
2019-05-10T16:32:45.436Z,2.80
2019-05-10T16:35:14.681Z,2.43
2019-05-10T16:37:43.888Z,2.40
2019-05-10T16:40:19.416Z,3.30
2019-05-10T16:42:50.890Z,2.27
2019-05-10T16:45:22.650Z,2.10
2019-05-10T16:47:53.992Z,1.97
2019-05-10T16:50:26.220Z,1.90
2019-05-10T16:53:05.887Z,1.40
2019-05-10T16:55:35.604Z,1.50
2019-05-10T16:58:09.558Z,1.20
2019-05-10T17:00:35.333Z,2.23
2019-05-10T17:03:06.040Z,1.60
2019-05-10T17:05:37.758Z,1.50
2019-05-10T17:08:15.525Z,2.63
2019-05-10T17:10:45.035Z,1.63
2019-05-10T17:13:18.023Z,1.43
2019-05-10T17:15:46.910Z,1.53
2019-05-10T17:18:19.870Z,2.20
2019-05-10T17:20:50.831Z,1.97
2019-05-10T17:23:25.877Z,1.93
2019-05-10T17:25:54.831Z,2.33
2019-05-10T17:28:34.742Z,2.50
2019-05-10T17:31:07.730Z,2.60
2019-05-10T17:33:36.766Z,2.43
2019-05-10T17:36:09.226Z,2.47
2019-05-10T17:38:38.391Z,2.40
2019-05-10T17:41:10.422Z,3.50
2019-05-10T17:43:39.067Z,2.83
2019-05-10T17:46:27.062Z,2.83
2019-05-10T17:48:59.756Z,2.53
2019-05-10T17:52:23.331Z,2.23
2019-05-10T17:54:51.946Z,3.10
2019-05-10T17:58:04.781Z,3.10
2019-05-10T18:00:43.539Z,2.30
2019-05-10T18:06:41.277Z,2.30
2019-05-10T18:09:56.538Z,2.10
2019-05-10T18:12:38.831Z,2.50
2019-05-10T18:15:53.348Z,2.50
2019-05-10T18:18:27.259Z,2.33
2019-05-10T18:24:17.806Z,2.90
2019-05-10T18:27:14.867Z,2.70
2019-05-10T18:29:55.567Z,2.60
2019-05-10T18:33:01.614Z,2.50
2019-05-10T18:35:39.089Z,3.33
2019-05-10T18:38:43.848Z,3.97
2019-05-10T18:41:14.789Z,4.13
2019-05-10T18:46:59.155Z,5.10
2019-05-10T18:50:00.461Z,5.30
2019-05-10T18:52:39.843Z,6.10
2019-05-10T18:55:50.583Z,6.17
2019-05-10T18:58:23.277Z,6.03
2019-05-10T19:00:56.167Z,6.87
2019-05-10T19:03:33.726Z,6.60
2019-05-10T19:06:11.139Z,6.30
2019-05-10T19:08:59.397Z,5.93
2019-05-10T19:11:39.154Z,6.33
2019-05-10T19:17:27.013Z,6.13
2019-05-10T19:20:03.360Z,5.33
2019-05-10T19:22:32.904Z,6.57
2019-05-10T19:32:18.267Z,5.73
2019-05-10T19:34:48.496Z,5.57
2019-05-10T19:37:29.841Z,5.17
2019-05-10T19:39:50.273Z,5.50
2019-05-10T19:45:36.697Z,5.60
2019-05-10T19:48:15.235Z,5.63
2019-05-10T19:50:46.646Z,4.23
2019-05-10T19:53:21.652Z,5.23
2019-05-10T19:59:53.619Z,5.80
2019-05-10T20:08:13.497Z,5.53
2019-05-10T20:10:43.992Z,6.13
2019-05-10T20:13:15.857Z,5.53
2019-05-10T20:15:46.706Z,5.20
2019-05-10T20:18:19.378Z,5.70
2019-05-10T20:20:50.895Z,5.57
2019-05-10T20:26:31.474Z,6.00
2019-05-10T20:29:51.888Z,6.47
2019-05-10T20:32:16.682Z,6.27
2019-05-10T20:34:50.322Z,5.60
2019-05-10T20:37:19.337Z,5.30
2019-05-10T20:39:48.045Z,5.13
2019-05-10T20:42:16.646Z,4.80
2019-05-10T20:44:45.350Z,4.93
2019-05-10T20:47:14.402Z,5.00
2019-05-10T20:53:06.355Z,6.40
2019-05-10T20:56:08.752Z,5.23
2019-05-10T20:58:40.074Z,5.23
2019-05-10T21:01:19.334Z,5.10
2019-05-10T21:03:59.407Z,4.80
2019-05-10T21:07:13.591Z,5.13
2019-05-10T21:13:10.082Z,5.47
2019-05-10T21:15:42.757Z,5.03
2019-05-10T21:21:27.717Z,5.27
2019-05-10T21:23:59.115Z,5.90
2019-05-10T21:26:29.291Z,5.10
2019-05-10T21:28:58.765Z,5.00
2019-05-10T21:34:43.905Z,5.83
2019-05-10T21:37:12.813Z,5.77
2019-05-10T21:40:24.258Z,6.10
2019-05-10T21:42:54.741Z,5.57
2019-05-10T21:46:22.283Z,6.57
2019-05-10T21:48:52.387Z,6.43
2019-05-10T21:51:51.835Z,6.73
2019-05-10T21:54:23.012Z,6.60
2019-05-10T21:56:57.129Z,6.50
2019-05-10T21:59:34.393Z,7.30
2019-05-10T22:02:03.273Z,5.77
2019-05-10T22:04:33.296Z,8.70
2019-05-10T22:07:02.907Z,8.10
2019-05-10T22:13:00.550Z,7.60
2019-05-10T22:15:31.677Z,7.43
2019-05-10T22:18:10.508Z,7.33
2019-05-10T22:20:41.203Z,7.07
2019-05-10T22:23:14.616Z,7.53
2019-05-10T22:25:58.527Z,7.70
2019-05-10T22:28:28.246Z,8.10
2019-05-10T22:34:12.410Z,8.30
2019-05-10T22:36:46.160Z,8.20
2019-05-10T22:39:16.980Z,8.33
2019-05-10T22:41:47.608Z,6.87
2019-05-10T22:47:37.079Z,7.63
2019-05-10T22:50:10.308Z,7.37
2019-05-10T22:53:19.176Z,7.40
2019-05-10T22:55:50.663Z,7.17
2019-05-10T22:58:25.250Z,7.87
2019-05-10T23:01:21.884Z,7.50
2019-05-10T23:03:58.398Z,7.63
2019-05-10T23:06:32.367Z,7.93
2019-05-10T23:09:24.139Z,7.63
2019-05-10T23:11:46.496Z,7.33
2019-05-10T23:14:23.391Z,6.93
2019-05-10T23:16:57.161Z,7.17
2019-05-10T23:19:29.982Z,8.90
2019-05-10T23:22:04.726Z,8.47
2019-05-10T23:25:16.738Z,8.43
2019-05-10T23:27:48.856Z,8.50
2019-05-10T23:30:18.547Z,8.47
2019-05-10T23:33:03.653Z,7.70
2019-05-10T23:35:36.304Z,7.43
2019-05-10T23:41:24.510Z,6.90
2019-05-10T23:43:55.421Z,7.77
2019-05-10T23:46:48.919Z,8.37
2019-05-10T23:49:19.298Z,8.53
2019-05-10T23:51:49.420Z,8.67
